»·PEaware :: DAL2189 KSLC-KPDX

DAL2189 :: KSLC-KPDX

FLIGHT INFORMATION

Flight Status: Arrived
Operator:
Delta Air Lines
More flights by this operator :: More flights under this callsign
Pilot: Joe P. (13940)
Aircraft: MCDONNELL-DOUGLAS MD-82
(MD82)
More flights by this aircraft type
Origin: KSLC Salt Lake City Intl
United States
Destination: KPDX Portland Intl
United States
More flights between these airports :: More routes between these airports
Route: +CGULL1 TWF J15 BOI J163 BKE JOTBA HHOOD4
File this flight plan on PilotEdge
Remarks: CYVR -PBN / B3B4B5D3D4 DOF / 180722 REG / N904DL EET / KZSE0055
Altitude:
(Current/Filed)
340ft
Speed:
(Current/Filed)
461kts
Departed: 22-Jul-18 08:39 PM
Arrived: 22-Jul-18 10:11 PM
Distance/Time
Traveled:
546nm/1:32
Distance/Time
To Go:
Arrived

Flight Plot

Page will automatically refresh every two minutes.

Flight plan parsing failed; only flown route is shown


Map Options




Map Legend


Flown Route
Filed Route
Departure Airport
Arrival Airport
Navaid (VOR, NDB)
Fix

Horizontal Profiles

Position Reports

Time Latitude Longitude Heading Altitude Ground
Speed
22-Jul-18 19:43 40.785586 -111.978056 231 4236ft 0kts
22-Jul-18 19:44 40.785586 -111.978056 231 4236ft 0kts
22-Jul-18 19:45 40.785586 -111.978056 231 4236ft 0kts
22-Jul-18 19:46 40.785586 -111.978056 231 4236ft 0kts
22-Jul-18 19:47 40.785586 -111.978056 231 4236ft 0kts
22-Jul-18 19:48 40.785586 -111.978056 231 4236ft 0kts
22-Jul-18 19:49 40.785586 -111.978056 231 4236ft 0kts
22-Jul-18 19:50 40.785586 -111.978056 231 4236ft 0kts
22-Jul-18 19:51 40.785586 -111.978056 231 4236ft 0kts
22-Jul-18 19:52 40.785586 -111.978056 231 4236ft 0kts
22-Jul-18 19:53 40.785586 -111.978056 231 4236ft 0kts
22-Jul-18 19:54 40.785586 -111.978056 231 4236ft 0kts
22-Jul-18 19:55 40.785586 -111.978056 231 4236ft 0kts
22-Jul-18 19:56 40.785586 -111.978056 231 4236ft 0kts
22-Jul-18 19:57 40.785586 -111.978056 231 4236ft 0kts
22-Jul-18 19:58 40.785586 -111.978056 231 4236ft 0kts
22-Jul-18 19:59 40.785586 -111.978056 231 4236ft 0kts
22-Jul-18 20:00 40.785586 -111.978056 231 4236ft 0kts
22-Jul-18 20:01 40.785586 -111.978056 231 4236ft 0kts
22-Jul-18 20:02 40.785586 -111.978056 231 4236ft 0kts
22-Jul-18 20:03 40.785586 -111.978056 231 4236ft 0kts
22-Jul-18 20:04 40.785586 -111.978056 231 4236ft 0kts
22-Jul-18 20:05 40.785586 -111.978056 231 4236ft 0kts
22-Jul-18 20:06 40.785586 -111.978056 231 4236ft 0kts
22-Jul-18 20:07 40.785586 -111.978056 231 4236ft 0kts
22-Jul-18 20:08 40.785586 -111.978056 231 4236ft 0kts
22-Jul-18 20:09 40.785586 -111.978056 231 4236ft 0kts
22-Jul-18 20:10 40.785586 -111.978056 231 4236ft 0kts
22-Jul-18 20:11 40.785586 -111.978056 231 4236ft 0kts
22-Jul-18 20:12 40.785586 -111.978056 231 4236ft 0kts
22-Jul-18 20:13 40.785586 -111.978056 231 4236ft 0kts
22-Jul-18 20:14 40.785586 -111.978056 231 4236ft 0kts
22-Jul-18 20:15 40.785586 -111.978056 231 4236ft 0kts
22-Jul-18 20:16 40.785586 -111.978056 231 4236ft 0kts
22-Jul-18 20:17 40.785586 -111.978056 231 4236ft 0kts
22-Jul-18 20:18 40.785586 -111.978056 231 4236ft 0kts
22-Jul-18 20:19 40.785586 -111.978056 231 4236ft 0kts
22-Jul-18 20:20 40.785586 -111.978056 231 4236ft 0kts
22-Jul-18 20:21 40.785586 -111.978056 231 4236ft 0kts
22-Jul-18 20:22 40.785586 -111.978056 231 4236ft 0kts
22-Jul-18 20:23 40.785615 -111.978007 231 4236ft 1kts
22-Jul-18 20:24 40.785871 -111.977074 270 4236ft 2kts
22-Jul-18 20:25 40.785812 -111.976601 287 4236ft 0kts
22-Jul-18 20:26 40.785812 -111.976601 287 4236ft 0kts
22-Jul-18 20:27 40.785812 -111.976601 287 4236ft 0kts
22-Jul-18 20:28 40.785813 -111.976604 287 4236ft 0kts
22-Jul-18 20:29 40.785813 -111.976606 287 4236ft 0kts
22-Jul-18 20:30 40.786126 -111.976758 355 4236ft 8kts
22-Jul-18 20:31 40.790854 -111.977237 354 4236ft 22kts
22-Jul-18 20:32 40.795997 -111.977846 354 4236ft 16kts
22-Jul-18 20:33 40.800034 -111.978298 354 4236ft 13kts
22-Jul-18 20:34 40.803269 -111.978775 356 4236ft 11kts
22-Jul-18 20:35 40.806988 -111.979107 357 4236ft 13kts
22-Jul-18 20:36 40.807589 -111.978561 79 4236ft 0kts
22-Jul-18 20:37 40.807589 -111.978558 79 4236ft 0kts
22-Jul-18 20:38 40.807571 -111.978250 97 4236ft 3kts
22-Jul-18 20:39 40.806901 -111.976822 157 4236ft 7kts
22-Jul-18 20:40 40.790090 -111.974978 177 4236ft 153kts
22-Jul-18 20:41 40.745894 -111.986884 240 6555ft 137kts
22-Jul-18 20:42 40.751052 -112.049645 318 6886ft 228kts
22-Jul-18 20:43 40.819212 -112.073155 320 8995ft 281kts
22-Jul-18 20:44 40.853447 -112.160540 292 10034ft 285kts
22-Jul-18 20:45 40.883839 -112.259957 292 11352ft 295kts
22-Jul-18 20:46 40.915180 -112.360331 292 12754ft 298kts
22-Jul-18 20:47 40.947512 -112.462368 292 14160ft 302kts
22-Jul-18 20:48 40.999093 -112.549901 318 15491ft 315kts
22-Jul-18 20:49 41.069585 -112.632590 315 16431ft 350kts
22-Jul-18 20:50 41.141333 -112.724529 314 18278ft 363kts
22-Jul-18 20:51 41.215355 -112.819197 314 20043ft 375kts
22-Jul-18 20:52 41.291276 -112.917514 313 21706ft 386kts
22-Jul-18 20:53 41.369323 -113.018017 313 23311ft 396kts
22-Jul-18 20:54 41.449827 -113.121367 312 24812ft 405kts
22-Jul-18 20:55 41.531374 -113.227247 312 26124ft 413kts
22-Jul-18 20:56 41.614190 -113.335467 312 27269ft 421kts
22-Jul-18 20:57 41.698652 -113.445900 311 28278ft 427kts
22-Jul-18 20:58 41.784103 -113.557514 311 29175ft 432kts
22-Jul-18 20:59 41.870283 -113.671098 311 29917ft 437kts
22-Jul-18 21:00 41.957231 -113.785825 311 30815ft 436kts
22-Jul-18 21:01 42.043183 -113.899552 311 31741ft 433kts
22-Jul-18 21:02 42.128985 -114.013958 310 32261ft 435kts
22-Jul-18 21:03 42.215341 -114.130089 310 32264ft 445kts
22-Jul-18 21:04 42.303363 -114.248433 310 32264ft 445kts
22-Jul-18 21:05 42.391589 -114.366592 310 32265ft 445kts
22-Jul-18 21:06 42.478833 -114.484910 309 32266ft 444kts
22-Jul-18 21:07 42.559680 -114.610471 305 32264ft 440kts
22-Jul-18 21:08 42.640069 -114.735596 306 32260ft 440kts
22-Jul-18 21:09 42.720303 -114.860732 305 32243ft 439kts
22-Jul-18 21:10 42.800603 -114.986040 305 32252ft 438kts
22-Jul-18 21:11 42.880438 -115.111250 305 32244ft 438kts
22-Jul-18 21:12 42.960269 -115.236427 305 32231ft 437kts
22-Jul-18 21:13 43.039684 -115.362394 305 32214ft 436kts
22-Jul-18 21:14 43.118645 -115.487904 305 32217ft 435kts
22-Jul-18 21:15 43.197505 -115.613964 305 32211ft 434kts
22-Jul-18 21:16 43.275881 -115.739350 305 32210ft 432kts
22-Jul-18 21:17 43.354048 -115.864314 305 32211ft 430kts
22-Jul-18 21:18 43.431798 -115.990008 304 32207ft 430kts
22-Jul-18 21:19 43.508887 -116.115330 304 32199ft 429kts
22-Jul-18 21:20 43.590469 -116.236109 311 32198ft 435kts
22-Jul-18 21:21 43.681915 -116.346695 312 32191ft 436kts
22-Jul-18 21:22 43.772953 -116.457063 312 32186ft 436kts
22-Jul-18 21:23 43.863711 -116.568835 312 32181ft 435kts
22-Jul-18 21:24 43.954088 -116.680610 312 32184ft 437kts
22-Jul-18 21:25 44.044420 -116.792488 311 32183ft 431kts
22-Jul-18 21:26 44.133767 -116.904125 311 32182ft 431kts
22-Jul-18 21:27 44.222803 -117.015683 311 32187ft 431kts
22-Jul-18 21:28 44.311974 -117.127537 311 32202ft 432kts
22-Jul-18 21:29 44.401530 -117.239874 311 32224ft 432kts
22-Jul-18 21:30 44.490518 -117.352430 311 32247ft 431kts
22-Jul-18 21:31 44.579622 -117.465697 311 32265ft 431kts
22-Jul-18 21:32 44.668088 -117.578922 311 32277ft 430kts
22-Jul-18 21:33 44.756420 -117.692455 311 32284ft 430kts
22-Jul-18 21:34 44.834162 -117.816514 289 32290ft 413kts
22-Jul-18 21:35 44.868350 -117.968996 276 32286ft 406kts
22-Jul-18 21:36 44.885795 -118.126098 276 32281ft 406kts
22-Jul-18 21:37 44.906445 -118.283324 277 32278ft 407kts
22-Jul-18 21:38 44.926865 -118.440100 276 32275ft 406kts
22-Jul-18 21:39 44.946495 -118.597553 276 32279ft 407kts
22-Jul-18 21:40 44.966017 -118.754216 276 32277ft 405kts
22-Jul-18 21:41 44.985661 -118.910888 276 32272ft 405kts
22-Jul-18 21:42 45.005429 -119.068340 276 32221ft 406kts
22-Jul-18 21:43 45.024218 -119.225553 275 32216ft 406kts
22-Jul-18 21:44 45.042906 -119.382834 275 32211ft 406kts
22-Jul-18 21:45 45.061741 -119.540818 275 32204ft 406kts
22-Jul-18 21:46 45.080167 -119.698339 275 32197ft 406kts
22-Jul-18 21:47 45.095471 -119.829911 275 32192ft 405kts
22-Jul-18 21:48 45.113681 -119.987026 275 32187ft 405kts
22-Jul-18 21:49 45.131482 -120.144577 275 32182ft 406kts
22-Jul-18 21:50 45.145922 -120.303412 274 31901ft 411kts
22-Jul-18 21:51 45.165190 -120.463626 277 29626ft 415kts
22-Jul-18 21:52 45.205249 -120.620275 296 27068ft 436kts
22-Jul-18 21:53 45.265767 -120.767431 294 24647ft 424kts
22-Jul-18 21:54 45.320445 -120.912902 295 22102ft 411kts
22-Jul-18 21:55 45.374426 -121.053576 295 19709ft 398kts
22-Jul-18 21:56 45.425600 -121.190387 291 17299ft 386kts
22-Jul-18 21:57 45.457565 -121.329892 282 15112ft 376kts
22-Jul-18 21:58 45.482340 -121.460585 283 14104ft 314kts
22-Jul-18 21:59 45.505076 -121.577060 283 12284ft 295kts
22-Jul-18 22:00 45.527112 -121.689460 283 11101ft 274kts
22-Jul-18 22:01 45.537406 -121.798798 271 10256ft 271kts
22-Jul-18 22:02 45.539915 -121.906907 271 8677ft 277kts
22-Jul-18 22:03 45.543916 -122.013204 273 7293ft 254kts
22-Jul-18 22:04 45.521392 -122.099991 234 6324ft 220kts
22-Jul-18 22:05 45.484058 -122.174291 233 5854ft 232kts
22-Jul-18 22:06 45.463707 -122.260188 267 4743ft 228kts
22-Jul-18 22:07 45.494297 -122.334641 303 3648ft 201kts
22-Jul-18 22:08 45.517500 -122.397204 297 2643ft 156kts
22-Jul-18 22:09 45.538221 -122.450464 298 1860ft 151kts
22-Jul-18 22:10 45.558474 -122.502459 298 1098ft 148kts
22-Jul-18 22:11 45.578130 -122.552749 297 323ft 146kts
22-Jul-18 22:12 45.592959 -122.590858 300 27ft 32kts
22-Jul-18 22:13 45.594032 -122.595709 225 27ft 10kts
22-Jul-18 22:14 45.592631 -122.595890 119 27ft 7kts
22-Jul-18 22:15 45.591487 -122.594026 197 27ft 4kts
22-Jul-18 22:16 45.591321 -122.594114 201 27ft 0kts
22-Jul-18 22:17 45.591321 -122.594114 201 27ft 0kts
22-Jul-18 22:18 45.591321 -122.594114 201 27ft 0kts
22-Jul-18 22:19 45.591321 -122.594114 201 27ft 0kts
22-Jul-18 22:20 45.591321 -122.594114 201 27ft 0kts
22-Jul-18 22:21 45.591321 -122.594114 201 27ft 0kts
22-Jul-18 22:22 45.591321 -122.594114 201 27ft 0kts

Navigation Log

Ident Type
Flight plan parsing failed, navigation log unavailable